Time;durP1;ratioP1;P1;durP2;ratioP2;P2;SDS_P1;SDS_P2;PMS_P1;PMS_P2;Temp;Humidity;BMP_temperature;BMP_pressure;BME280_temperature;BME280_humidity;BME280_pressure;Samples;Min_cycle;Max_cycle;Signal;HPM_P1;HPM_P2
2022/12/23 00:01:00;;;;;;;34.80;19.50;;;;;;;8.82;100.00;100325.84;4937281;29;20039;-88
2022/12/23 00:03:26;;;;;;;35.78;18.95;;;;;;;8.75;100.00;100314.25;4937232;29;20102;-87
2022/12/23 00:05:52;;;;;;;36.10;20.45;;;;;;;8.82;100.00;100326.66;4937427;29;20027;-90
2022/12/23 00:08:18;;;;;;;34.90;18.23;;;;;;;8.83;100.00;100323.16;4937245;29;20043;-90
2022/12/23 00:10:44;;;;;;;37.50;19.13;;;;;;;8.82;100.00;100324.09;4937169;29;20494;-87
2022/12/23 00:16:09;;;;;;;36.15;20.63;;;;;;;8.72;100.00;100310.16;4937088;29;20055;-88
2022/12/23 00:18:35;;;;;;;33.78;20.75;;;;;;;8.79;100.00;100326.03;4919597;29;20059;-87
2022/12/23 00:21:03;;;;;;;36.17;20.17;;;;;;;8.83;100.00;100336.03;4936839;29;20507;-88
2022/12/23 00:23:31;;;;;;;35.45;20.25;;;;;;;8.89;100.00;100340.81;4937070;29;20386;-88
2022/12/23 00:25:56;;;;;;;36.70;20.27;;;;;;;8.88;100.00;100330.59;4936464;29;20028;-87
2022/12/23 00:28:23;;;;;;;34.92;21.10;;;;;;;8.70;100.00;100301.69;4936878;29;20494;-88
2022/12/23 00:30:50;;;;;;;35.97;21.90;;;;;;;8.79;100.00;100316.56;4937069;29;20099;-88
2022/12/23 00:33:19;;;;;;;38.05;21.10;;;;;;;8.90;100.00;100334.72;4918718;29;20036;-88
2022/12/23 00:35:44;;;;;;;36.85;21.98;;;;;;;8.89;100.00;100335.66;4936489;29;20138;-89
2022/12/23 00:38:10;;;;;;;42.30;22.08;;;;;;;8.89;100.00;100351.09;4936483;29;20020;-88
2022/12/23 00:43:20;;;;;;;34.22;21.02;;;;;;;8.88;100.00;100357.19;4937104;29;20179;-87
2022/12/23 00:45:45;;;;;;;39.85;22.15;;;;;;;8.76;100.00;100345.09;4936727;29;20110;-88
2022/12/23 00:50:54;;;;;;;37.67;19.70;;;;;;;8.86;100.00;100366.75;4937233;29;20571;-89
2022/12/23 00:53:20;;;;;;;33.60;19.10;;;;;;;8.74;100.00;100346.91;4936693;29;20114;-88
2022/12/23 00:55:49;;;;;;;31.90;19.90;;;;;;;8.86;100.00;100378.81;4919884;29;20051;-89
2022/12/23 00:58:16;;;;;;;35.22;20.10;;;;;;;8.72;100.00;100359.06;4936565;29;20063;-88
2022/12/23 01:06:11;;;;;;;35.15;19.63;;;;;;;8.78;100.00;100370.72;4936782;29;20039;-84
2022/12/23 01:08:37;;;;;;;36.15;19.95;;;;;;;8.78;100.00;100375.88;4919005;29;20040;-88
2022/12/23 01:13:46;;;;;;;36.85;19.60;;;;;;;8.34;100.00;100307.38;5139461;23;20074;-88
2022/12/23 01:16:27;;;;;;;33.65;18.75;;;;;;;8.88;100.00;100392.41;4955675;28;20035;-88
2022/12/23 01:19:36;;;;;;;33.72;18.38;;;;;;;8.87;100.00;100391.56;4955273;28;20035;-87
2022/12/23 01:25:35;;;;;;;31.88;16.63;;;;;;;8.86;100.00;100396.81;4955290;28;20050;-78
2022/12/23 01:28:49;;;;;;;34.00;17.58;;;;;;;8.85;100.00;100390.84;4955022;28;20031;-84
2022/12/23 01:31:26;;;;;;;41.15;16.80;;;;;;;8.78;100.00;100386.19;4955359;28;20098;-88
2022/12/23 01:34:10;;;;;;;33.60;18.15;;;;;;;8.37;100.00;100314.13;4955320;28;20062;-85
2022/12/23 01:36:44;;;;;;;30.45;17.33;;;;;;;7.95;100.00;100251.50;4954736;28;20027;-85
2022/12/23 01:39:09;;;;;;;34.38;17.85;;;;;;;8.86;100.00;100397.66;4955398;28;20493;-80
2022/12/23 01:44:48;;;;;;;34.10;18.13;;;;;;;8.86;100.00;100400.22;4955584;29;20118;-83
2022/12/23 01:47:25;;;;;;;31.23;17.50;;;;;;;8.79;100.00;100391.22;4955072;28;20031;-81
2022/12/23 01:50:03;;;;;;;31.70;17.25;;;;;;;8.84;100.00;100396.06;4954957;29;20495;-78
2022/12/23 01:52:32;;;;;;;30.67;17.40;;;;;;;8.85;100.00;100408.88;4955082;28;20102;-85
2022/12/23 01:54:57;;;;;;;33.03;17.58;;;;;;;8.85;100.00;100411.44;4955216;28;20033;-86
2022/12/23 01:57:23;;;;;;;30.17;16.83;;;;;;;8.86;100.00;100418.25;4954856;29;20023;-82
2022/12/23 02:05:21;;;;;;;33.00;16.85;;;;;;;8.85;100.00;100420.94;4955103;28;20046;-83
2022/12/23 02:10:43;;;;;;;32.40;17.17;;;;;;;8.84;100.00;100430.38;4954772;28;20046;-84
2022/12/23 02:16:15;;;;;;;30.80;16.73;;;;;;;8.85;100.00;100431.22;4954593;29;20503;-82
2022/12/23 02:16:40;;;;;;;28.80;16.80;;;;;;;8.84;100.00;100438.09;4876991;29;20048;-81
2022/12/23 02:19:17;;;;;;;35.17;17.50;;;;;;;8.84;100.00;100440.66;4877100;29;20120;-86
2022/12/23 02:22:23;;;;;;;32.42;17.48;;;;;;;8.83;100.00;100428.72;4877067;29;20076;-88
2022/12/23 02:25:07;;;;;;;33.60;16.00;;;;;;;8.82;100.00;100432.22;4806396;29;20038;-78
2022/12/23 02:27:42;;;;;;;33.17;15.85;;;;;;;8.74;100.00;100429.28;4821896;29;20102;-85
2022/12/23 02:30:23;;;;;;;31.23;16.95;;;;;;;8.83;100.00;100439.03;4821962;29;20065;-83
2022/12/23 02:33:04;;;;;;;28.83;15.95;;;;;;;8.81;100.00;100448.59;4821931;29;20076;-88
2022/12/23 02:35:58;;;;;;;25.58;15.20;;;;;;;8.82;100.00;100455.38;4821704;29;20046;-88
2022/12/23 02:39:12;;;;;;;25.95;15.50;;;;;;;8.82;100.00;100460.53;4767633;30;20540;-87
2022/12/23 02:41:56;;;;;;;25.95;14.15;;;;;;;8.61;100.00;100425.81;4714986;30;20048;-88
2022/12/23 03:02:48;;;;;;;23.83;13.75;;;;;;;7.89;100.00;100352.97;5300530;23;20047;-84
2022/12/23 03:05:28;;;;;;;24.35;13.60;;;;;;;8.39;100.00;100422.91;4960566;28;20043;-81
2022/12/23 03:07:58;;;;;;;23.63;13.68;;;;;;;8.79;100.00;100490.81;4962220;29;20027;-81
2022/12/23 03:10:41;;;;;;;24.67;14.27;;;;;;;8.79;100.00;100496.78;4963433;29;20027;-85
2022/12/23 03:13:09;;;;;;;25.23;14.00;;;;;;;8.86;100.00;100503.22;4963056;23;20051;-87
2022/12/23 03:15:48;;;;;;;24.80;14.10;;;;;;;8.83;100.00;100490.50;4938638;29;20030;-88
2022/12/23 03:18:48;;;;;;;25.15;13.63;;;;;;;8.79;100.00;100483.09;4938428;29;20035;-88
2022/12/23 03:21:32;;;;;;;25.40;15.40;;;;;;;8.86;100.00;100505.78;4938037;29;20410;-86
2022/12/23 03:24:06;;;;;;;29.80;15.38;;;;;;;8.83;100.00;100485.38;4939319;29;20027;-86
2022/12/23 03:26:37;;;;;;;24.90;13.57;;;;;;;8.83;100.00;100487.94;4939793;29;20087;-83
2022/12/23 03:31:57;;;;;;;27.73;14.50;;;;;;;8.39;100.00;100430.63;5030838;23;20066;-88
2022/12/23 03:35:02;;;;;;;24.98;14.68;;;;;;;8.40;100.00;100424.56;4957008;28;20078;-87
2022/12/23 03:37:31;;;;;;;28.58;15.85;;;;;;;8.53;100.00;100457.16;4956988;28;20065;-86
2022/12/23 03:40:07;;;;;;;30.00;15.50;;;;;;;8.80;100.00;100495.84;4957049;29;20038;-88
2022/12/23 03:42:43;;;;;;;31.67;16.25;;;;;;;8.53;100.00;100441.72;4956914;29;20031;-88
2022/12/23 03:45:20;;;;;;;30.98;15.18;;;;;;;8.81;100.00;100494.94;4957034;29;20027;-88
2022/12/23 03:47:52;;;;;;;29.58;15.73;;;;;;;8.79;100.00;100495.97;4956927;29;20065;-88
2022/12/23 03:50:18;;;;;;;;;;;;;;;8.83;100.00;100502.56;4957427;28;20118;-88
2022/12/23 03:52:57;;;;;;;28.02;15.10;;;;;;;8.55;100.00;100446.78;4956847;28;19922;-77
2022/12/23 03:55:50;;;;;;;28.55;14.65;;;;;;;8.53;100.00;100457.16;4957084;28;20042;-84
2022/12/23 03:58:25;;;;;;;28.50;15.32;;;;;;;8.80;100.00;100498.44;4860324;29;20056;-89
2022/12/23 04:01:01;;;;;;;29.45;15.90;;;;;;;8.51;100.00;100450.47;4860454;29;20048;-89
2022/12/23 04:03:40;;;;;;;30.08;14.90;;;;;;;8.68;100.00;100486.31;4860519;29;20044;-89
2022/12/23 04:06:13;;;;;;;26.80;14.15;;;;;;;8.81;100.00;100512.97;4860667;29;20033;-89
2022/12/23 04:08:40;;;;;;;26.52;14.52;;;;;;;8.70;100.00;100510.22;4860619;29;20049;-89
2022/12/23 04:11:06;;;;;;;24.95;14.35;;;;;;;8.57;100.00;100483.56;4860481;29;20078;-89
2022/12/23 04:13:32;;;;;;;22.23;14.13;;;;;;;8.82;100.00;100521.50;4860227;29;20034;-88
2022/12/23 04:16:54;;;;;;;23.27;14.10;;;;;;;7.73;100.00;100355.59;5104554;23;20039;-89
2022/12/23 04:31:15;;;;;;;27.15;16.08;;;;;;;8.65;100.00;100516.53;5252473;23;20055;-87
2022/12/23 04:33:40;;;;;;;32.13;16.27;;;;;;;8.76;100.00;100551.03;4956188;28;20061;-87
2022/12/23 04:36:05;;;;;;;33.97;16.67;;;;;;;8.76;100.00;100550.22;4956452;29;20103;-89
2022/12/23 04:38:31;;;;;;;33.13;16.92;;;;;;;8.74;100.00;100552.03;4956127;29;20467;-88
2022/12/23 04:40:56;;;;;;;29.45;16.17;;;;;;;8.69;100.00;100546.34;4994837;23;20044;-83
2022/12/23 04:43:21;;;;;;;29.70;16.27;;;;;;;8.75;100.00;100548.53;4937017;29;20428;-88
2022/12/23 04:45:50;;;;;;;31.02;16.17;;;;;;;8.76;100.00;100550.22;4936746;29;20515;-87
2022/12/23 04:48:16;;;;;;;33.53;17.58;;;;;;;8.75;100.00;100551.97;4937022;29;20583;-86
2022/12/23 04:50:42;;;;;;;31.55;16.20;;;;;;;8.72;100.00;100541.81;4936843;29;20019;-83
2022/12/23 04:53:07;;;;;;;35.95;17.30;;;;;;;8.77;100.00;100533.84;4936676;29;20031;-85
2022/12/23 04:55:32;;;;;;;32.10;16.20;;;;;;;8.63;100.00;100506.34;4936686;29;20028;-86
2022/12/23 04:57:58;;;;;;;29.52;15.95;;;;;;;8.78;100.00;100525.19;4919521;29;20023;-87
2022/12/23 05:00:23;;;;;;;28.83;15.48;;;;;;;8.78;100.00;100517.47;4936565;29;20042;-87
2022/12/23 05:02:48;;;;;;;33.03;16.20;;;;;;;8.76;100.00;100514.19;4919551;29;20066;-87
2022/12/23 05:05:14;;;;;;;31.60;15.82;;;;;;;8.80;100.00;100513.06;4936661;29;20034;-88
2022/12/23 05:07:39;;;;;;;31.90;15.35;;;;;;;8.77;100.00;100506.34;4936680;29;20110;-87
2022/12/23 05:10:05;;;;;;;31.85;15.82;;;;;;;8.81;100.00;100512.13;4935612;29;20118;-88
2022/12/23 05:12:30;;;;;;;29.95;15.52;;;;;;;8.68;100.00;100504.34;4936307;29;20472;-88
2022/12/23 05:14:56;;;;;;;32.58;16.13;;;;;;;8.79;100.00;100529.44;4936289;29;20111;-87
2022/12/23 05:17:22;;;;;;;34.25;16.75;;;;;;;8.70;100.00;100517.94;4936450;29;20031;-87
2022/12/23 05:19:47;;;;;;;34.97;17.30;;;;;;;8.48;100.00;100487.50;4936278;29;20115;-88
2022/12/23 05:22:12;;;;;;;33.85;16.33;;;;;;;8.74;100.00;100537.41;4936354;29;20031;-85
2022/12/23 05:24:38;;;;;;;33.00;17.70;;;;;;;8.74;100.00;100534.00;4936065;29;20097;-88
2022/12/23 05:27:03;;;;;;;33.97;17.25;;;;;;;8.75;100.00;100554.53;4936262;29;20110;-88
2022/12/23 05:29:28;;;;;;;29.90;16.55;;;;;;;8.74;100.00;100562.31;4936300;29;20539;-89
2022/12/23 05:31:54;;;;;;;38.00;17.30;;;;;;;8.60;100.00;100545.13;4936322;29;20136;-89
2022/12/23 05:34:19;;;;;;;35.03;17.60;;;;;;;8.70;100.00;100556.53;4936264;29;20032;-88
2022/12/23 05:36:45;;;;;;;34.08;18.63;;;;;;;8.62;100.00;100557.00;4936249;29;20024;-88
2022/12/23 05:39:10;;;;;;;38.17;17.88;;;;;;;8.66;100.00;100552.50;4936010;29;20487;-89
2022/12/23 05:41:35;;;;;;;33.42;17.77;;;;;;;8.73;100.00;100570.97;4935953;29;20075;-88
2022/12/23 05:44:01;;;;;;;37.58;18.00;;;;;;;8.73;100.00;100565.81;4935975;29;20023;-87
2022/12/23 05:46:26;;;;;;;34.15;18.90;;;;;;;8.59;100.00;100559.75;4936005;29;20364;-85
2022/12/23 05:48:52;;;;;;;39.42;19.15;;;;;;;8.68;100.00;100576.41;4936114;29;20024;-88
2022/12/23 05:51:17;;;;;;;34.47;17.85;;;;;;;8.72;100.00;100580.44;4936047;29;20032;-88
2022/12/23 05:53:42;;;;;;;36.15;18.95;;;;;;;8.61;100.00;100557.09;4919061;29;20019;-88
2022/12/23 05:56:08;;;;;;;35.55;19.30;;;;;;;8.62;100.00;100563.88;4935751;29;20071;-88
2022/12/23 05:58:33;;;;;;;37.50;19.48;;;;;;;8.61;100.00;100550.19;4935926;29;20064;-88
2022/12/23 06:01:03;;;;;;;38.75;18.95;;;;;;;8.70;100.00;100563.44;4935976;29;20039;-89
2022/12/23 06:03:29;;;;;;;35.88;18.65;;;;;;;8.66;100.00;100547.38;4935790;29;20483;-87
2022/12/23 06:05:54;;;;;;;33.22;18.52;;;;;;;8.61;100.00;100539.06;4935898;29;20152;-88
2022/12/23 06:08:20;;;;;;;39.22;19.67;;;;;;;8.68;100.00;100553.25;4918331;29;20039;-88
2022/12/23 06:10:46;;;;;;;38.97;18.67;;;;;;;8.63;100.00;100538.06;4935674;29;20063;-88
2022/12/23 06:13:11;;;;;;;37.78;18.90;;;;;;;8.62;100.00;100528.69;4935874;29;20023;-84
2022/12/23 06:15:37;;;;;;;35.60;17.35;;;;;;;8.70;100.00;100540.28;4935830;29;20020;-87
2022/12/23 06:18:02;;;;;;;40.20;19.70;;;;;;;8.67;100.00;100541.28;4942136;29;20034;-88
2022/12/23 06:20:28;;;;;;;38.05;18.70;;;;;;;8.51;100.00;100512.22;4954911;29;20027;-88
2022/12/23 06:22:53;;;;;;;37.60;17.77;;;;;;;8.65;100.00;100530.22;4956158;28;20109;-88
2022/12/23 06:25:18;;;;;;;35.10;19.00;;;;;;;8.61;100.00;100523.63;4958577;29;20475;-88
2022/12/23 06:27:44;;;;;;;37.25;18.60;;;;;;;8.66;100.00;100531.91;4958609;29;20134;-88
2022/12/23 06:30:09;;;;;;;35.78;16.83;;;;;;;8.68;100.00;100529.25;4958478;29;20039;-85
2022/12/23 06:32:35;;;;;;;37.28;18.85;;;;;;;8.66;100.00;100531.91;4941118;29;20505;-88
2022/12/23 06:35:00;;;;;;;36.63;17.90;;;;;;;8.69;100.00;100533.47;4958609;29;20034;-87
2022/12/23 06:37:25;;;;;;;37.85;18.88;;;;;;;8.68;100.00;100535.22;4958101;29;20526;-86
2022/12/23 06:39:51;;;;;;;39.88;18.23;;;;;;;8.58;100.00;100527.22;4957755;29;20086;-86
2022/12/23 06:42:16;;;;;;;34.47;17.35;;;;;;;8.51;100.00;100510.47;4958171;29;20118;-88
2022/12/23 06:44:41;;;;;;;31.02;16.17;;;;;;;8.57;100.00;100532.47;4958244;29;20035;-86
2022/12/23 06:47:07;;;;;;;33.80;16.45;;;;;;;8.61;100.00;100541.66;4958231;29;20376;-86
2022/12/23 06:49:32;;;;;;;35.17;17.98;;;;;;;8.69;100.00;100559.22;4940793;29;20469;-87
2022/12/23 06:51:57;;;;;;;29.17;15.10;;;;;;;8.62;100.00;100549.28;4957980;29;20051;-86
2022/12/23 06:54:23;;;;;;;31.70;15.13;;;;;;;8.68;100.00;100566.13;4958125;29;20047;-86
2022/12/23 06:56:48;;;;;;;28.23;14.68;;;;;;;8.43;100.00;100524.72;4958152;29;20035;-88
2022/12/23 06:59:14;;;;;;;28.90;13.90;;;;;;;8.53;100.00;100559.28;4958104;29;20035;-87
2022/12/23 07:01:39;;;;;;;26.38;14.05;;;;;;;8.69;100.00;100596.06;4958050;29;20436;-87
2022/12/23 07:04:04;;;;;;;26.77;13.85;;;;;;;8.69;100.00;100603.81;4957761;29;20027;-87
2022/12/23 07:06:30;;;;;;;26.67;14.07;;;;;;;8.69;100.00;100611.53;4940497;29;20070;-87
2022/12/23 07:08:55;;;;;;;29.02;15.15;;;;;;;8.70;100.00;100622.66;4958006;29;20039;-86
2022/12/23 07:11:20;;;;;;;27.17;14.45;;;;;;;8.58;100.00;100608.75;4957788;29;20034;-86
2022/12/23 07:13:46;;;;;;;33.95;16.05;;;;;;;8.59;100.00;100611.22;4957793;29;20023;-87
2022/12/23 07:16:12;;;;;;;32.00;15.52;;;;;;;8.55;100.00;100593.47;4957954;29;20020;-87
2022/12/23 07:18:37;;;;;;;28.83;15.45;;;;;;;8.68;100.00;100615.03;4957704;29;20114;-86
2022/12/23 07:21:03;;;;;;;33.45;16.23;;;;;;;8.54;100.00;100578.94;4951142;29;20075;-88
2022/12/23 07:23:29;;;;;;;39.33;18.17;;;;;;;8.57;100.00;100576.22;4942796;29;20059;-86
2022/12/23 07:25:54;;;;;;;38.28;18.73;;;;;;;8.67;100.00;100592.78;4938790;29;20024;-86
2022/12/23 07:28:23;;;;;;;41.60;20.33;;;;;;;8.43;100.00;100559.00;4938646;29;20171;-86
2022/12/23 07:30:49;;;;;;;40.03;18.67;;;;;;;8.70;100.00;100596.91;4938492;29;20066;-86
2022/12/23 07:33:14;;;;;;;44.58;20.55;;;;;;;8.70;100.00;100597.72;4937889;29;20115;-84
2022/12/23 07:35:41;;;;;;;49.85;22.55;;;;;;;8.64;100.00;100582.63;4938301;29;20020;-84
2022/12/23 07:38:10;;;;;;;46.15;22.35;;;;;;;8.52;100.00;100573.91;4938410;29;20373;-81
2022/12/23 07:40:35;;;;;;;42.42;20.90;;;;;;;8.50;100.00;100549.19;4921839;29;20044;-85
2022/12/23 07:43:01;;;;;;;43.30;21.70;;;;;;;8.70;100.00;100586.59;4937897;29;20039;-82
2022/12/23 07:45:28;;;;;;;43.92;23.30;;;;;;;8.72;100.00;100590.75;4938183;29;20110;-84
2022/12/23 07:47:55;;;;;;;46.17;22.42;;;;;;;8.62;100.00;100574.19;4938030;29;20059;-85
2022/12/23 07:50:21;;;;;;;48.70;23.20;;;;;;;8.49;100.00;100548.34;4937681;29;20388;-85
2022/12/23 07:52:46;;;;;;;45.22;23.48;;;;;;;8.72;100.00;100593.31;4937991;29;20501;-85
2022/12/23 07:55:12;;;;;;;42.97;23.20;;;;;;;8.53;100.00;100554.13;4937721;29;20103;-83
2022/12/23 07:57:38;;;;;;;41.13;22.38;;;;;;;8.36;100.00;100521.69;4937727;29;20114;-85
2022/12/23 08:00:08;;;;;;;47.85;23.20;;;;;;;8.73;100.00;100583.84;4937606;29;20395;-84
2022/12/23 08:02:34;;;;;;;50.58;23.42;;;;;;;8.67;100.00;100572.19;4937469;29;20036;-84
2022/12/23 08:04:59;;;;;;;46.17;23.77;;;;;;;8.47;100.00;100545.03;4937491;29;20031;-86
2022/12/23 08:07:24;;;;;;;49.00;27.27;;;;;;;8.74;100.00;100588.91;4937486;29;20028;-83
2022/12/23 08:09:50;;;;;;;60.47;32.75;;;;;;;8.67;100.00;100569.59;4937399;29;20035;-84
2022/12/23 08:12:15;;;;;;;57.17;33.78;;;;;;;8.74;100.00;100593.22;4926458;29;20034;-76
2022/12/23 08:15:19;;;;;;;62.70;34.67;;;;;;;8.61;100.00;100549.38;5252190;23;20062;-78
2022/12/23 08:17:44;;;;;;;60.03;33.75;;;;;;;7.98;100.00;100455.28;4955836;29;20027;-81
2022/12/23 08:20:10;;;;;;;61.38;32.95;;;;;;;8.61;100.00;100547.63;4956246;29;20078;-79
2022/12/23 08:22:35;;;;;;;67.82;33.83;;;;;;;8.75;100.00;100561.41;4956325;29;20038;-79
2022/12/23 08:25:01;;;;;;;58.10;31.80;;;;;;;8.55;100.00;100529.13;4956322;29;20035;-82
2022/12/23 08:27:26;;;;;;;63.22;29.55;;;;;;;8.70;100.00;100566.00;4956137;29;20027;-80
2022/12/23 08:29:52;;;;;;;62.35;32.10;;;;;;;8.77;100.00;100565.56;4955974;29;20074;-81
2022/12/23 08:32:17;;;;;;;63.72;30.15;;;;;;;8.76;100.00;100558.75;4938549;28;20039;-78
2022/12/23 08:34:43;;;;;;;56.10;30.48;;;;;;;8.75;100.00;100563.97;4955996;29;20416;-82
2022/12/23 08:37:08;;;;;;;58.97;29.35;;;;;;;8.76;100.00;100566.50;4955830;29;20082;-81
2022/12/23 08:39:34;;;;;;;60.55;29.23;;;;;;;8.62;100.00;100544.13;4938840;29;20031;-82
2022/12/23 08:42:00;;;;;;;61.92;30.88;;;;;;;8.72;100.00;100559.84;4955789;29;20047;-80
2022/12/23 08:44:26;;;;;;;67.13;32.05;;;;;;;8.72;100.00;100561.59;4955588;28;20070;-81
2022/12/23 08:46:53;;;;;;;69.15;33.55;;;;;;;8.78;100.00;100567.22;4955328;29;20027;-81
2022/12/23 08:49:18;;;;;;;61.72;33.17;;;;;;;8.80;100.00;100556.81;4955686;29;20108;-82
2022/12/23 08:51:44;;;;;;;61.10;31.60;;;;;;;8.80;100.00;100557.66;4955860;29;20031;-81
2022/12/23 08:54:09;;;;;;;62.97;33.25;;;;;;;8.82;100.00;100548.06;4955836;28;20035;-80
2022/12/23 08:56:39;;;;;;;59.63;33.28;;;;;;;8.84;100.00;100543.66;4954529;29;20426;-77
2022/12/23 08:59:04;;;;;;;64.25;33.10;;;;;;;8.73;100.00;100520.31;4955587;29;20032;-82
2022/12/23 09:01:32;;;;;;;59.70;31.02;;;;;;;8.87;100.00;100524.66;4955636;29;20030;-83
2022/12/23 09:04:00;;;;;;;55.30;30.98;;;;;;;8.89;100.00;100525.38;4955327;29;20019;-84
2022/12/23 09:06:31;;;;;;;51.25;26.52;;;;;;;8.85;100.00;100527.31;4955715;29;20081;-83
2022/12/23 09:08:57;;;;;;;52.95;27.10;;;;;;;8.85;100.00;100537.63;4955518;29;20035;-81
2022/12/23 09:11:24;;;;;;;49.10;25.42;;;;;;;8.88;100.00;100540.00;4955564;29;20090;-82
2022/12/23 09:13:50;;;;;;;47.40;25.92;;;;;;;8.66;100.00;100489.91;4954939;29;20046;-84
2022/12/23 09:16:18;;;;;;;47.70;23.20;;;;;;;8.80;100.00;100511.31;4955569;29;20491;-76
2022/12/23 09:18:44;;;;;;;42.17;23.25;;;;;;;8.85;100.00;100524.75;4955114;29;20387;-82
2022/12/23 09:21:13;;;;;;;45.08;22.67;;;;;;;8.84;100.00;100515.34;4937908;29;20042;-84
2022/12/23 09:23:38;;;;;;;44.92;22.23;;;;;;;8.79;100.00;100499.34;4955480;29;20030;-79
2022/12/23 09:26:04;;;;;;;42.20;21.42;;;;;;;8.81;100.00;100496.69;4955332;29;20387;-81
2022/12/23 09:28:30;;;;;;;43.20;21.00;;;;;;;8.87;100.00;100502.28;4955295;29;20438;-81
2022/12/23 09:30:55;;;;;;;41.28;21.30;;;;;;;8.88;100.00;100492.81;4955300;29;20110;-79
2022/12/23 09:33:20;;;;;;;38.03;20.38;;;;;;;8.70;100.00;100466.44;4955271;29;20118;-77
2022/12/23 09:35:46;;;;;;;40.72;19.02;;;;;;;8.88;100.00;100487.69;4955630;29;20038;-77
2022/12/23 09:38:11;;;;;;;41.30;19.40;;;;;;;8.80;100.00;100475.25;4955126;29;20161;-78
2022/12/23 09:40:39;;;;;;;40.08;18.58;;;;;;;8.86;100.00;100484.38;4938058;29;20493;-80
2022/12/23 09:43:30;;;;;;;36.72;17.25;;;;;;;8.77;100.00;100472.06;4954939;29;20029;-81
2022/12/23 09:46:02;;;;;;;33.25;17.58;;;;;;;8.83;100.00;100487.94;4955216;29;20379;-83
2022/12/23 09:48:32;;;;;;;36.65;17.33;;;;;;;8.83;100.00;100477.63;4955220;29;20344;-84
2022/12/23 09:50:58;;;;;;;34.20;17.15;;;;;;;8.61;100.00;100438.69;4955158;29;20081;-80
2022/12/23 09:53:49;;;;;;;30.15;15.93;;;;;;;8.85;100.00;100470.69;4954961;29;20038;-81
2022/12/23 09:56:26;;;;;;;30.48;15.10;;;;;;;8.89;100.00;100469.56;4955516;28;20058;-84
2022/12/23 09:59:06;;;;;;;33.72;16.65;;;;;;;8.88;100.00;100460.19;4941224;29;20076;-81
2022/12/23 10:01:43;;;;;;;28.90;16.15;;;;;;;8.88;100.00;100459.34;4958861;29;20015;-82
2022/12/23 10:04:36;;;;;;;35.47;15.52;;;;;;;8.88;100.00;100467.91;4958925;29;20435;-85
2022/12/23 10:07:08;;;;;;;30.48;16.17;;;;;;;8.87;100.00;100466.25;4958567;29;20035;-84
2022/12/23 10:09:38;;;;;;;30.08;16.20;;;;;;;8.89;100.00;100474.69;4958886;29;20106;-85
2022/12/23 10:12:41;;;;;;;29.90;14.63;;;;;;;8.85;100.00;100459.53;4940979;29;20101;-85
2022/12/23 10:15:20;;;;;;;28.70;14.90;;;;;;;8.91;100.00;100456.56;4958341;29;20055;-81
2022/12/23 10:17:49;;;;;;;27.48;13.93;;;;;;;8.83;100.00;100439.03;4958598;29;20035;-84
2022/12/23 10:20:31;;;;;;;22.63;12.15;;;;;;;8.85;100.00;100434.63;4958717;29;20123;-79
2022/12/23 10:22:58;;;;;;;28.73;12.82;;;;;;;8.85;100.00;100436.38;4958478;29;20077;-85
2022/12/23 10:25:36;;;;;;;25.10;12.18;;;;;;;8.87;100.00;100435.34;4958713;29;20019;-82
2022/12/23 10:28:01;;;;;;;26.42;13.40;;;;;;;8.82;100.00;100424.50;4958244;29;20030;-85
2022/12/23 10:30:32;;;;;;;26.77;11.90;;;;;;;8.87;100.00;100424.22;4958157;29;20462;-83
2022/12/23 10:33:08;;;;;;;25.07;12.93;;;;;;;8.73;100.00;100393.34;4940894;29;20419;-84
2022/12/23 10:35:52;;;;;;;27.17;13.35;;;;;;;8.89;100.00;100410.31;4958305;29;20330;-85
2022/12/23 10:38:41;;;;;;;23.95;12.40;;;;;;;8.87;100.00;100419.06;4958147;29;20039;-84
2022/12/23 10:41:28;;;;;;;20.73;12.00;;;;;;;8.89;100.00;100412.06;4958235;29;20392;-74
2022/12/23 10:44:12;;;;;;;26.50;13.63;;;;;;;8.90;100.00;100408.56;4940863;29;20122;-86
2022/12/23 10:47:12;;;;;;;24.58;12.60;;;;;;;8.91;100.00;100390.44;4958304;29;20023;-77
2022/12/23 10:49:57;;;;;;;26.98;13.68;;;;;;;8.94;100.00;100394.56;4940904;29;20467;-79
2022/12/23 10:52:28;;;;;;;24.38;13.15;;;;;;;8.97;100.00;100396.16;4958247;29;20118;-74
2022/12/23 10:54:54;;;;;;;22.80;12.27;;;;;;;8.85;100.00;100362.53;4958278;29;20034;-74
2022/12/23 10:57:19;;;;;;;22.90;12.73;;;;;;;8.91;100.00;100364.69;4957991;29;20382;-79
2022/12/23 10:59:45;;;;;;;26.60;13.63;;;;;;;8.88;100.00;100349.44;4957860;29;20031;-86
2022/12/23 11:02:10;;;;;;;21.98;12.55;;;;;;;9.02;100.00;100363.19;4958280;29;20034;-86
2022/12/23 11:04:38;;;;;;;25.02;12.07;;;;;;;9.05;100.00;100352.72;4940289;29;20363;-83
2022/12/23 11:07:07;;;;;;;20.88;12.07;;;;;;;9.05;100.00;100350.97;4957650;29;20058;-78
2022/12/23 11:09:38;;;;;;;23.95;11.90;;;;;;;8.92;100.00;100319.16;4956973;28;20039;-76
2022/12/23 11:12:06;;;;;;;23.83;11.43;;;;;;;9.10;100.00;100341.16;4957409;29;20031;-86
2022/12/23 11:14:34;;;;;;;22.27;11.63;;;;;;;9.10;100.00;100335.19;4957473;29;20122;-74
2022/12/23 11:19:39;;;;;;;21.23;11.02;;;;;;;7.95;100.00;100148.66;5008190;23;20055;-84
2022/12/23 11:30:22;;;;;;;20.02;10.27;;;;;;;9.06;100.00;100320.88;4963439;23;20059;-83
2022/12/23 11:32:49;;;;;;;26.02;11.32;;;;;;;9.00;100.00;100316.13;4957423;29;20474;-78
2022/12/23 11:35:25;;;;;;;18.75;9.80;;;;;;;8.87;100.00;100295.47;4940001;28;20039;-84
2022/12/23 11:37:51;;;;;;;17.55;10.20;;;;;;;8.95;100.00;100307.84;4940418;29;20032;-83
2022/12/23 11:40:34;;;;;;;17.33;9.85;;;;;;;8.93;100.00;100313.09;4958483;29;20074;-82
2022/12/23 11:43:06;;;;;;;18.88;9.30;;;;;;;8.85;100.00;100298.16;5012258;23;20055;-81
2022/12/23 11:45:35;;;;;;;;;;;;;;;8.93;100.00;100295.06;4938690;29;20079;-86
2022/12/23 11:48:03;;;;;;;17.63;9.25;;;;;;;8.84;100.00;100287.94;5032139;23;19926;-77
2022/12/23 11:50:35;;;;;;;17.55;9.68;;;;;;;8.83;100.00;100273.41;4958070;29;20397;-81
2022/12/23 11:53:19;;;;;;;19.00;8.98;;;;;;;8.89;100.00;100276.44;4957591;29;20031;-82
2022/12/23 11:55:56;;;;;;;16.65;9.57;;;;;;;8.79;100.00;100256.53;4957100;29;20114;-85
2022/12/23 11:58:22;;;;;;;16.52;10.02;;;;;;;8.87;100.00;100265.41;4956765;28;20090;-83
2022/12/23 12:00:57;;;;;;;16.58;9.48;;;;;;;8.73;100.00;100246.63;4956613;29;20031;-85
2022/12/23 12:03:27;;;;;;;19.35;9.30;;;;;;;8.84;100.00;100260.44;4956776;29;20031;-86
2022/12/23 12:05:59;;;;;;;20.42;9.57;;;;;;;8.62;100.00;100208.69;4956850;29;20082;-78
2022/12/23 12:08:32;;;;;;;16.58;9.68;;;;;;;8.81;100.00;100236.66;4956771;28;20031;-76
2022/12/23 12:11:06;;;;;;;21.38;9.88;;;;;;;8.81;100.00;100218.63;4956529;29;20054;-81
2022/12/23 12:13:38;;;;;;;16.35;8.60;;;;;;;8.77;100.00;100197.41;4956586;28;20047;-76
2022/12/23 12:16:17;;;;;;;19.58;10.30;;;;;;;8.81;100.00;100191.13;4956430;28;20110;-76
2022/12/23 12:18:45;;;;;;;20.95;9.93;;;;;;;8.79;100.00;100182.69;4956460;28;20055;-82
2022/12/23 12:21:15;;;;;;;18.08;10.35;;;;;;;8.78;100.00;100182.78;4956286;28;20407;-83
2022/12/23 12:23:46;;;;;;;18.27;9.48;;;;;;;8.69;100.00;100161.06;4956215;29;20031;-78
2022/12/23 12:26:19;;;;;;;20.45;10.60;;;;;;;8.79;100.00;100174.16;4956407;28;20019;-84
2022/12/23 12:28:53;;;;;;;17.88;10.40;;;;;;;8.55;100.00;100130.22;4956255;29;20435;-84
2022/12/23 12:31:22;;;;;;;16.60;9.57;;;;;;;8.82;100.00;100174.75;4956049;28;20153;-87
2022/12/23 12:34:24;;;;;;;19.08;9.65;;;;;;;8.85;100.00;100178.91;4954757;29;20023;-79
2022/12/23 12:37:12;;;;;;;18.80;9.98;;;;;;;8.82;100.00;100169.59;4897811;29;20036;-86
2022/12/23 12:39:41;;;;;;;20.83;10.27;;;;;;;8.84;100.00;100151.47;4896919;29;20091;-87
2022/12/23 12:42:40;;;;;;;22.15;11.02;;;;;;;8.76;100.00;100115.16;4896801;29;20041;-76